Terminal Aerodrome Forecast
Issued by NWS

Home | Current Version | Previous Version | Text Only | Print | Product List | Glossary Off
Versions: 1 2 3 4 5 6 7 8 9 10 11 12 13 14 15 16 17 18

963
FTUS41 KCLE 202327
TAFFDY
TAF
KFDY 202327Z 2100/2124 26006KT P6SM SCT050
     FM210200 24004KT P6SM BKN100
     FM210700 VRB03KT 5SM BR SCT100
     FM211300 02006KT P6SM SCT015
     FM211400 03005KT P6SM SCT035
     FM211700 07005KT P6SM SCT050=

USA.gov is the U.S. government's official web portal to all federal, state and local government web resources and services.